createdAt,value
2022-10-22T00:00:02.466Z,5.87
2022-10-22T00:02:34.030Z,4.17
2022-10-22T00:05:01.715Z,7.70
2022-10-22T00:07:29.551Z,6.90
2022-10-22T00:09:57.180Z,11.00
2022-10-22T00:12:25.143Z,11.70
2022-10-22T00:14:52.792Z,10.83
2022-10-22T00:17:20.709Z,4.63
2022-10-22T00:19:49.690Z,11.17
2022-10-22T00:22:17.580Z,7.40
2022-10-22T00:24:45.262Z,6.03
2022-10-22T00:27:13.714Z,4.87
2022-10-22T00:29:42.419Z,7.13
2022-10-22T00:32:10.068Z,9.33
2022-10-22T00:34:37.645Z,7.77
2022-10-22T00:37:06.597Z,7.33
2022-10-22T00:39:34.253Z,4.67
2022-10-22T00:42:01.833Z,5.97
2022-10-22T00:45:15.566Z,9.03
2022-10-22T00:47:47.299Z,5.27
2022-10-22T00:50:20.089Z,5.30
2022-10-22T00:52:50.469Z,7.20
2022-10-22T00:55:19.077Z,8.40
2022-10-22T00:57:47.344Z,6.37
2022-10-22T01:00:16.337Z,6.80
2022-10-22T01:02:44.371Z,6.03
2022-10-22T01:05:12.215Z,5.43
2022-10-22T01:07:44.152Z,5.40
2022-10-22T01:10:22.902Z,4.50
2022-10-22T01:13:01.737Z,8.20
2022-10-22T01:15:37.879Z,5.40
2022-10-22T01:18:10.123Z,5.73
2022-10-22T01:20:54.976Z,8.20
2022-10-22T01:23:39.940Z,7.13
2022-10-22T01:26:19.333Z,5.43
2022-10-22T01:28:58.746Z,6.00
2022-10-22T01:31:30.858Z,4.90
2022-10-22T01:34:01.356Z,6.67
2022-10-22T01:36:31.046Z,6.27
2022-10-22T01:39:00.354Z,9.27
2022-10-22T01:41:28.536Z,8.00
2022-10-22T01:43:57.818Z,7.17
2022-10-22T01:46:27.916Z,10.23
2022-10-22T01:49:13.578Z,10.93
2022-10-22T01:51:53.505Z,11.63
2022-10-22T01:54:30.671Z,6.93
2022-10-22T01:57:08.890Z,6.50
2022-10-22T01:59:49.771Z,8.53
2022-10-22T02:02:29.962Z,19.77
2022-10-22T02:05:01.707Z,7.50
2022-10-22T02:07:36.749Z,7.27
2022-10-22T02:10:07.478Z,9.20
2022-10-22T02:12:36.397Z,7.33
2022-10-22T02:15:06.480Z,10.30
2022-10-22T02:17:38.267Z,10.57
2022-10-22T02:20:11.850Z,8.63
2022-10-22T02:22:40.275Z,10.87
2022-10-22T02:25:09.777Z,8.03
2022-10-22T02:27:42.873Z,12.40
2022-10-22T02:32:52.644Z,11.10
2022-10-22T02:35:23.083Z,8.80
2022-10-22T02:37:52.237Z,10.73
2022-10-22T02:40:20.981Z,9.00
2022-10-22T02:42:50.507Z,10.17
2022-10-22T02:45:21.018Z,10.43
2022-10-22T02:47:48.735Z,11.67
2022-10-22T02:50:16.560Z,8.50
2022-10-22T02:52:44.198Z,9.47
2022-10-22T02:55:11.963Z,6.70
2022-10-22T02:57:39.914Z,6.67
2022-10-22T03:00:09.670Z,12.23
2022-10-22T03:02:38.673Z,10.07
2022-10-22T03:05:08.345Z,7.93
2022-10-22T03:07:36.511Z,8.60
2022-10-22T03:10:04.433Z,6.53
2022-10-22T03:12:32.067Z,6.90
2022-10-22T03:14:59.780Z,7.73
2022-10-22T03:17:27.445Z,7.00
2022-10-22T03:19:56.391Z,6.80
2022-10-22T03:22:28.354Z,7.70
2022-10-22T03:24:59.315Z,10.33
2022-10-22T03:27:28.287Z,8.87
2022-10-22T03:29:57.849Z,8.40
2022-10-22T03:32:25.563Z,8.97
2022-10-22T03:34:53.252Z,11.50
2022-10-22T03:37:23.378Z,12.67
2022-10-22T03:39:51.154Z,8.77
2022-10-22T03:42:18.872Z,18.50
2022-10-22T03:44:46.575Z,9.97
2022-10-22T03:47:15.354Z,8.43
2022-10-22T03:49:42.956Z,13.30
2022-10-22T03:52:11.860Z,8.30
2022-10-22T03:54:42.105Z,14.50
2022-10-22T03:57:10.240Z,9.33
2022-10-22T03:59:39.027Z,12.60
2022-10-22T04:02:06.975Z,10.53
2022-10-22T04:04:34.732Z,9.47
2022-10-22T04:07:02.309Z,18.17
2022-10-22T04:09:32.233Z,9.20
2022-10-22T04:12:01.781Z,9.23
2022-10-22T04:14:29.370Z,8.30
2022-10-22T04:16:57.074Z,16.37
2022-10-22T04:19:24.700Z,7.20
2022-10-22T04:21:52.401Z,12.43
2022-10-22T04:24:20.024Z,8.60
2022-10-22T04:26:47.764Z,7.40
2022-10-22T04:29:16.711Z,11.47
2022-10-22T04:31:44.322Z,9.77
2022-10-22T04:34:11.991Z,9.33
2022-10-22T04:36:39.623Z,9.30
2022-10-22T04:39:07.389Z,11.13
2022-10-22T04:41:37.279Z,8.00
2022-10-22T04:44:05.930Z,12.70
2022-10-22T04:46:36.746Z,9.17
2022-10-22T04:49:04.961Z,10.90
2022-10-22T04:51:33.666Z,17.03
2022-10-22T04:54:01.267Z,11.17
2022-10-22T04:56:31.152Z,10.77
2022-10-22T04:59:00.951Z,8.97
2022-10-22T05:01:30.371Z,13.37
2022-10-22T05:04:02.101Z,8.47
2022-10-22T05:06:31.043Z,9.27
2022-10-22T05:09:00.955Z,11.63
2022-10-22T05:11:31.760Z,14.87
2022-10-22T05:14:01.194Z,13.90
2022-10-22T05:16:29.882Z,11.17
2022-10-22T05:19:00.293Z,8.50
2022-10-22T05:21:28.056Z,9.63
2022-10-22T05:23:56.669Z,9.40
2022-10-22T05:26:25.020Z,10.73
2022-10-22T05:28:52.709Z,8.93
2022-10-22T05:31:21.218Z,10.53
2022-10-22T05:33:49.134Z,7.93
2022-10-22T05:36:20.179Z,14.97
2022-10-22T05:38:48.425Z,8.87
2022-10-22T05:41:18.038Z,11.77
2022-10-22T05:43:46.753Z,12.63
2022-10-22T05:46:21.268Z,7.10
2022-10-22T05:48:51.216Z,7.30
2022-10-22T05:51:21.265Z,11.70
2022-10-22T05:53:52.823Z,7.23
2022-10-22T05:56:20.518Z,11.53
2022-10-22T05:58:48.782Z,10.90
2022-10-22T06:01:19.549Z,9.67
2022-10-22T06:03:48.333Z,10.10
2022-10-22T06:06:23.089Z,10.63
2022-10-22T06:08:52.427Z,13.13
2022-10-22T06:11:21.473Z,9.10
2022-10-22T06:13:50.500Z,11.20
2022-10-22T06:16:18.607Z,10.80
2022-10-22T06:18:46.580Z,12.27
2022-10-22T06:21:16.501Z,11.97
2022-10-22T06:23:45.552Z,17.47
2022-10-22T06:26:13.177Z,6.70
2022-10-22T06:28:40.877Z,8.47
2022-10-22T06:31:08.456Z,9.80
2022-10-22T06:33:42.098Z,9.80
2022-10-22T06:36:11.979Z,8.10
2022-10-22T06:38:40.032Z,14.23
2022-10-22T06:41:10.902Z,10.90
2022-10-22T06:43:38.556Z,9.90
2022-10-22T06:46:09.556Z,19.33
2022-10-22T06:48:37.932Z,8.70
2022-10-22T06:51:08.589Z,9.73
2022-10-22T06:53:37.718Z,6.10
2022-10-22T06:56:11.726Z,6.03
2022-10-22T06:58:43.278Z,7.80
2022-10-22T07:01:12.937Z,9.97
2022-10-22T07:03:42.013Z,9.20
2022-10-22T07:06:11.638Z,8.90
2022-10-22T07:08:40.534Z,3.87
2022-10-22T07:11:12.810Z,5.97
2022-10-22T07:13:40.755Z,5.03
2022-10-22T07:16:10.339Z,6.00
2022-10-22T07:18:39.331Z,4.60
2022-10-22T07:21:08.642Z,11.00
2022-10-22T07:23:36.616Z,6.23
2022-10-22T07:26:07.093Z,6.43
2022-10-22T07:28:37.938Z,3.50
2022-10-22T07:31:06.060Z,10.50
2022-10-22T07:33:34.015Z,6.40
2022-10-22T07:36:03.292Z,5.47
2022-10-22T07:38:31.488Z,3.93
2022-10-22T07:40:59.716Z,3.87
2022-10-22T07:43:28.001Z,7.30
2022-10-22T07:45:57.081Z,4.97
2022-10-22T07:48:25.310Z,8.13
2022-10-22T07:50:53.378Z,4.63
2022-10-22T07:53:22.214Z,5.47
2022-10-22T07:55:50.295Z,4.10
2022-10-22T07:58:19.434Z,6.13
2022-10-22T08:00:47.698Z,10.90
2022-10-22T08:03:17.980Z,6.80
2022-10-22T08:05:46.548Z,5.63
2022-10-22T08:08:16.279Z,9.40
2022-10-22T08:10:44.509Z,5.57
2022-10-22T08:13:12.590Z,8.50
2022-10-22T08:15:40.841Z,4.50
2022-10-22T08:18:08.557Z,5.77
2022-10-22T08:20:37.549Z,10.13
2022-10-22T08:23:05.359Z,5.60
2022-10-22T08:25:33.515Z,6.00
2022-10-22T08:28:01.170Z,6.60
2022-10-22T08:30:29.738Z,6.67
2022-10-22T08:32:57.461Z,5.10
2022-10-22T08:35:25.088Z,5.67
2022-10-22T08:37:54.156Z,7.67
2022-10-22T08:40:26.907Z,10.03
2022-10-22T08:43:27.939Z,12.27
2022-10-22T08:46:05.503Z,12.93
2022-10-22T08:48:44.183Z,10.33
2022-10-22T08:51:16.078Z,6.57
2022-10-22T08:53:54.876Z,7.47
2022-10-22T08:56:24.455Z,11.50
2022-10-22T08:58:57.016Z,11.87
2022-10-22T09:01:32.989Z,6.53
2022-10-22T09:04:06.946Z,12.97
2022-10-22T09:06:37.696Z,5.40
2022-10-22T09:09:13.564Z,7.80
2022-10-22T09:11:44.339Z,8.90
2022-10-22T09:17:10.581Z,7.53
2022-10-22T09:19:48.102Z,9.77
2022-10-22T09:22:29.052Z,3.90
2022-10-22T09:25:03.108Z,11.70
2022-10-22T09:27:32.503Z,10.40
2022-10-22T09:30:02.486Z,6.30
2022-10-22T09:32:30.114Z,7.53
2022-10-22T09:34:59.086Z,6.90
2022-10-22T09:37:29.106Z,14.70
2022-10-22T09:39:59.837Z,6.70
2022-10-22T09:42:27.515Z,9.47
2022-10-22T09:44:57.165Z,9.13
2022-10-22T09:47:42.986Z,10.20
2022-10-22T09:50:26.688Z,5.13
2022-10-22T09:53:06.017Z,7.50
2022-10-22T09:55:35.063Z,7.37
2022-10-22T09:58:02.749Z,9.63
2022-10-22T10:00:31.936Z,7.20
2022-10-22T10:03:00.932Z,10.13
2022-10-22T10:05:31.769Z,8.63
2022-10-22T10:08:01.713Z,10.50
2022-10-22T10:10:41.876Z,8.43
2022-10-22T10:13:27.997Z,6.97
2022-10-22T10:15:59.017Z,8.03
2022-10-22T10:18:44.328Z,17.13
2022-10-22T10:21:20.679Z,9.90
2022-10-22T10:23:57.667Z,5.63
2022-10-22T10:26:32.628Z,8.23
2022-10-22T10:29:11.931Z,6.03
2022-10-22T10:31:50.513Z,6.67
2022-10-22T10:34:28.411Z,9.30
2022-10-22T10:37:05.518Z,5.67
2022-10-22T10:39:43.897Z,4.73
2022-10-22T10:42:22.840Z,5.50
2022-10-22T10:45:03.665Z,5.93
2022-10-22T10:47:57.190Z,5.63
2022-10-22T10:50:30.570Z,11.03
2022-10-22T10:53:07.223Z,7.13
2022-10-22T10:55:39.767Z,7.40
2022-10-22T10:58:19.629Z,7.83
2022-10-22T11:00:56.403Z,8.73
2022-10-22T11:03:52.493Z,7.20
2022-10-22T11:06:24.658Z,10.00
2022-10-22T11:08:59.485Z,7.70
2022-10-22T11:11:33.901Z,4.60
2022-10-22T11:14:10.944Z,6.10
2022-10-22T11:16:44.000Z,6.00
2022-10-22T11:19:22.766Z,7.63
2022-10-22T11:22:05.062Z,5.30
2022-10-22T11:24:39.200Z,7.57
2022-10-22T11:27:16.699Z,4.43
2022-10-22T11:29:53.262Z,5.60
2022-10-22T11:32:26.359Z,3.97
2022-10-22T11:34:57.659Z,7.10
2022-10-22T11:37:32.981Z,6.43
2022-10-22T11:40:04.583Z,7.30
2022-10-22T11:42:36.008Z,9.63
2022-10-22T11:45:07.477Z,12.73
2022-10-22T11:47:42.782Z,7.93
2022-10-22T11:50:25.024Z,4.00
2022-10-22T11:53:02.938Z,11.80
2022-10-22T11:55:45.643Z,7.70
2022-10-22T11:58:32.110Z,12.40
2022-10-22T12:01:19.739Z,4.43
2022-10-22T12:03:51.100Z,6.07
2022-10-22T12:06:22.887Z,9.03
2022-10-22T12:09:00.916Z,5.20
2022-10-22T12:11:36.386Z,6.90
2022-10-22T12:14:20.052Z,5.20
2022-10-22T12:16:57.514Z,8.07
2022-10-22T12:19:28.379Z,6.87
2022-10-22T12:21:59.480Z,11.30
2022-10-22T12:24:32.341Z,6.37
2022-10-22T12:27:00.281Z,7.47
2022-10-22T12:29:28.662Z,6.53
2022-10-22T12:31:57.747Z,7.63
2022-10-22T12:34:26.386Z,2.80
2022-10-22T12:36:54.548Z,5.33
2022-10-22T12:39:25.583Z,5.93
2022-10-22T12:41:53.952Z,5.57
2022-10-22T12:44:21.829Z,5.70
2022-10-22T12:46:54.435Z,7.23
2022-10-22T12:49:32.964Z,4.77
2022-10-22T12:52:03.504Z,6.10
2022-10-22T12:54:34.215Z,11.33
2022-10-22T12:57:02.307Z,6.60
2022-10-22T12:59:34.842Z,6.47
2022-10-22T13:02:06.721Z,2.90
2022-10-22T13:04:39.067Z,7.10
2022-10-22T13:07:19.852Z,3.33
2022-10-22T13:09:58.958Z,5.13
2022-10-22T13:12:27.723Z,5.80
2022-10-22T13:14:55.519Z,4.13
2022-10-22T13:17:39.857Z,3.07
2022-10-22T13:20:22.121Z,2.90
2022-10-22T13:23:00.343Z,4.40
2022-10-22T13:25:30.473Z,4.13
2022-10-22T13:28:00.655Z,6.17
2022-10-22T13:30:32.283Z,5.90
2022-10-22T13:33:01.496Z,3.10
2022-10-22T13:35:32.691Z,2.77
2022-10-22T13:38:00.374Z,5.37
2022-10-22T13:40:28.440Z,3.90
2022-10-22T13:42:56.075Z,4.10
2022-10-22T13:45:23.748Z,5.43
2022-10-22T13:47:54.166Z,3.53
2022-10-22T13:50:22.633Z,6.10
2022-10-22T13:52:54.759Z,3.93
2022-10-22T13:55:25.506Z,3.33
2022-10-22T13:57:56.092Z,3.27
2022-10-22T14:00:26.825Z,4.33
2022-10-22T14:02:58.276Z,5.20
2022-10-22T14:05:26.231Z,3.60
2022-10-22T14:07:55.252Z,5.10
2022-10-22T14:10:25.205Z,7.63
2022-10-22T14:12:54.126Z,6.23
2022-10-22T14:15:24.825Z,2.60
2022-10-22T14:17:57.089Z,4.90
2022-10-22T14:20:27.519Z,4.83
2022-10-22T14:22:57.442Z,6.43
2022-10-22T14:25:27.845Z,5.83
2022-10-22T14:27:56.576Z,5.57
2022-10-22T14:30:26.258Z,4.30
2022-10-22T14:32:53.959Z,3.67
2022-10-22T14:35:23.500Z,5.40
2022-10-22T14:37:51.687Z,5.37
2022-10-22T14:40:22.004Z,6.83
2022-10-22T14:42:50.037Z,5.10
2022-10-22T14:45:19.905Z,6.83
2022-10-22T14:47:47.758Z,5.57
2022-10-22T14:50:15.558Z,4.63
2022-10-22T14:52:44.016Z,8.07
2022-10-22T14:55:12.927Z,4.30
2022-10-22T14:57:43.075Z,3.53
2022-10-22T15:00:14.186Z,7.73
2022-10-22T15:02:42.174Z,3.27
2022-10-22T15:05:10.871Z,4.80
2022-10-22T15:07:39.690Z,3.40
2022-10-22T15:10:09.262Z,7.10
2022-10-22T15:12:37.804Z,2.07
2022-10-22T15:15:08.253Z,6.73
2022-10-22T15:17:35.987Z,7.20
2022-10-22T15:20:05.459Z,3.93
2022-10-22T15:22:35.097Z,3.50
2022-10-22T15:25:03.691Z,7.03
2022-10-22T15:27:31.737Z,5.23
2022-10-22T15:29:59.849Z,5.27
2022-10-22T15:32:29.449Z,3.13
2022-10-22T15:34:57.480Z,3.77
2022-10-22T15:37:25.212Z,5.73
2022-10-22T15:39:52.912Z,4.33
2022-10-22T15:42:20.689Z,3.70
2022-10-22T15:44:48.480Z,3.63
2022-10-22T15:47:16.267Z,5.00
2022-10-22T15:49:45.787Z,5.00
2022-10-22T15:52:13.618Z,3.93
2022-10-22T15:54:43.761Z,4.43
2022-10-22T15:57:11.686Z,9.70
2022-10-22T15:59:39.443Z,5.03
2022-10-22T16:02:07.589Z,2.50
2022-10-22T16:04:35.322Z,4.70
2022-10-22T16:07:04.425Z,6.33
2022-10-22T16:09:32.161Z,9.13
2022-10-22T16:11:59.949Z,3.70
2022-10-22T16:14:28.723Z,6.33
2022-10-22T16:16:57.329Z,4.27
2022-10-22T16:19:26.270Z,5.60
2022-10-22T16:21:55.776Z,4.50
2022-10-22T16:24:24.875Z,7.87
2022-10-22T16:26:53.194Z,5.10
2022-10-22T16:29:21.065Z,4.43
2022-10-22T16:31:48.826Z,4.83
2022-10-22T16:34:16.559Z,7.23
2022-10-22T16:36:44.384Z,5.07
2022-10-22T16:39:12.183Z,3.60
2022-10-22T16:41:41.300Z,3.97
2022-10-22T16:44:10.817Z,7.50
2022-10-22T16:46:38.854Z,8.30
2022-10-22T16:49:07.559Z,7.13
2022-10-22T16:51:35.890Z,9.93
2022-10-22T16:54:05.672Z,11.90
2022-10-22T16:56:36.490Z,12.53
2022-10-22T16:59:05.535Z,9.43
2022-10-22T17:01:36.773Z,10.30
2022-10-22T17:04:07.283Z,12.33
2022-10-22T17:06:34.979Z,6.07
2022-10-22T17:09:02.704Z,6.03
2022-10-22T17:11:34.818Z,5.67
2022-10-22T17:14:05.032Z,12.00
2022-10-22T17:16:32.707Z,10.53
2022-10-22T17:19:00.316Z,11.13
2022-10-22T17:21:27.973Z,11.00
2022-10-22T17:23:56.995Z,9.73
2022-10-22T17:26:26.509Z,10.80
2022-10-22T17:28:54.646Z,9.93
2022-10-22T17:31:25.129Z,16.03
2022-10-22T17:33:54.596Z,9.33
2022-10-22T17:36:23.735Z,16.03
2022-10-22T17:38:53.656Z,9.13
2022-10-22T17:41:23.549Z,27.50
2022-10-22T17:43:51.596Z,64.13
2022-10-22T17:46:21.857Z,76.20
2022-10-22T17:48:55.536Z,66.00
2022-10-22T17:51:24.473Z,79.53
2022-10-22T17:53:52.365Z,83.20
2022-10-22T17:56:22.548Z,65.33
2022-10-22T17:58:50.489Z,49.30
2022-10-22T18:01:20.977Z,46.23
2022-10-22T18:03:49.052Z,44.77
2022-10-22T18:06:18.396Z,41.87
2022-10-22T18:08:46.249Z,32.80
2022-10-22T18:11:17.072Z,34.47
2022-10-22T18:13:44.953Z,35.10
2022-10-22T18:16:13.336Z,34.33
2022-10-22T18:18:41.163Z,25.37
2022-10-22T18:21:08.796Z,25.53
2022-10-22T18:23:37.785Z,25.93
2022-10-22T18:26:06.158Z,25.67
2022-10-22T18:28:34.152Z,16.93
2022-10-22T18:31:06.797Z,14.80
2022-10-22T18:33:35.912Z,16.47
2022-10-22T18:36:09.310Z,22.73
2022-10-22T18:38:39.111Z,20.50
2022-10-22T18:41:07.164Z,18.90
2022-10-22T18:43:34.966Z,15.50
2022-10-22T18:46:03.046Z,12.57
2022-10-22T18:48:30.665Z,18.70
2022-10-22T18:51:03.520Z,12.00
2022-10-22T18:53:31.269Z,12.83
2022-10-22T18:56:00.238Z,7.50
2022-10-22T18:58:27.922Z,13.40
2022-10-22T19:00:55.667Z,9.07
2022-10-22T19:03:23.395Z,11.23
2022-10-22T19:05:53.836Z,12.40
2022-10-22T19:08:22.513Z,16.13
2022-10-22T19:10:50.096Z,11.90
2022-10-22T19:13:21.057Z,11.03
2022-10-22T19:15:48.766Z,12.43
2022-10-22T19:18:16.566Z,14.53
2022-10-22T19:20:45.040Z,11.20
2022-10-22T19:23:13.628Z,12.23
2022-10-22T19:25:42.736Z,16.23
2022-10-22T19:28:10.371Z,17.20
2022-10-22T19:30:44.598Z,18.23
2022-10-22T19:33:12.282Z,19.43
2022-10-22T19:35:39.932Z,11.10
2022-10-22T19:38:07.676Z,11.80
2022-10-22T19:40:35.358Z,10.03
2022-10-22T19:43:03.028Z,10.87
2022-10-22T19:45:30.643Z,10.13
2022-10-22T19:47:59.708Z,10.00
2022-10-22T19:50:27.491Z,8.80
2022-10-22T19:52:55.325Z,7.47
2022-10-22T19:55:22.933Z,7.37
2022-10-22T19:57:50.541Z,9.97
2022-10-22T20:00:18.288Z,16.17
2022-10-22T20:02:46.140Z,8.50
2022-10-22T20:05:15.300Z,11.07
2022-10-22T20:07:43.267Z,9.50
2022-10-22T20:10:11.977Z,8.20
2022-10-22T20:12:39.659Z,8.77
2022-10-22T20:15:08.519Z,14.10
2022-10-22T20:17:36.153Z,9.47
2022-10-22T20:20:04.067Z,10.63
2022-10-22T20:22:33.092Z,10.77
2022-10-22T20:25:00.700Z,12.77
2022-10-22T20:27:28.474Z,7.73
2022-10-22T20:29:56.104Z,9.70
2022-10-22T20:32:24.806Z,10.30
2022-10-22T20:34:52.564Z,9.07
2022-10-22T20:37:20.284Z,9.90
2022-10-22T20:39:51.130Z,10.93
2022-10-22T20:42:18.790Z,6.27
2022-10-22T20:44:46.711Z,8.77
2022-10-22T20:47:14.441Z,9.60
2022-10-22T20:49:42.118Z,15.97
2022-10-22T20:52:09.827Z,7.93
2022-10-22T20:54:41.272Z,13.23
2022-10-22T20:57:11.385Z,9.87
2022-10-22T20:59:39.171Z,8.87
2022-10-22T21:02:07.537Z,10.00
2022-10-22T21:04:35.142Z,9.20
2022-10-22T21:07:02.942Z,9.30
2022-10-22T21:09:30.563Z,6.93
2022-10-22T21:12:03.055Z,8.90
2022-10-22T21:14:32.039Z,6.80
2022-10-22T21:17:00.132Z,10.57
2022-10-22T21:19:27.965Z,8.33
2022-10-22T21:21:55.575Z,11.63
2022-10-22T21:24:24.717Z,12.00
2022-10-22T21:26:53.178Z,12.40
2022-10-22T21:29:21.883Z,11.63
2022-10-22T21:31:50.930Z,17.20
2022-10-22T21:34:18.561Z,10.07
2022-10-22T21:39:14.875Z,16.87
2022-10-22T21:41:42.497Z,10.83
2022-10-22T21:44:10.139Z,15.20
2022-10-22T21:46:38.294Z,13.77
2022-10-22T21:49:07.251Z,19.50
2022-10-22T21:51:38.007Z,17.40
2022-10-22T21:54:06.077Z,20.50
2022-10-22T21:56:36.252Z,17.37
2022-10-22T21:59:05.302Z,13.00
2022-10-22T22:01:33.431Z,11.93
2022-10-22T22:04:01.485Z,13.13
2022-10-22T22:06:33.404Z,12.27
2022-10-22T22:09:03.374Z,18.50
2022-10-22T22:11:31.247Z,12.90
2022-10-22T22:13:59.547Z,10.83
2022-10-22T22:16:29.911Z,10.93
2022-10-22T22:18:59.074Z,14.20
2022-10-22T22:21:26.827Z,12.60
2022-10-22T22:23:56.142Z,14.07
2022-10-22T22:26:28.507Z,12.77
2022-10-22T22:28:58.177Z,12.63
2022-10-22T22:31:27.749Z,9.40
2022-10-22T22:33:59.089Z,7.10
2022-10-22T22:36:26.776Z,13.07
2022-10-22T22:38:56.784Z,8.40
2022-10-22T22:41:24.468Z,6.70
2022-10-22T22:43:52.168Z,11.17
2022-10-22T22:46:19.799Z,15.90
2022-10-22T22:48:49.407Z,8.10
2022-10-22T22:51:17.348Z,8.50
2022-10-22T22:53:45.224Z,9.90
2022-10-22T22:56:16.807Z,7.23
2022-10-22T22:58:45.259Z,10.10
2022-10-22T23:01:16.176Z,9.63
2022-10-22T23:03:45.332Z,10.10
2022-10-22T23:06:14.047Z,11.10
2022-10-22T23:08:43.002Z,6.23
2022-10-22T23:11:14.686Z,9.10
2022-10-22T23:13:43.544Z,11.10
2022-10-22T23:16:14.931Z,13.60
2022-10-22T23:18:43.186Z,11.80
2022-10-22T23:21:14.388Z,8.50
2022-10-22T23:23:45.344Z,12.17
2022-10-22T23:26:15.757Z,6.40
2022-10-22T23:28:43.429Z,8.60
2022-10-22T23:31:13.649Z,9.40
2022-10-22T23:33:41.738Z,7.47
2022-10-22T23:36:10.367Z,6.40
2022-10-22T23:38:40.217Z,6.57
2022-10-22T23:41:08.701Z,12.27
2022-10-22T23:43:38.456Z,7.77
2022-10-22T23:46:08.276Z,6.10
2022-10-22T23:48:36.443Z,9.03
2022-10-22T23:51:08.820Z,9.00
2022-10-22T23:53:36.534Z,6.80
2022-10-22T23:56:05.727Z,8.63
2022-10-22T23:58:34.577Z,4.93
